Time;durP1;ratioP1;P1;durP2;ratioP2;P2;SDS_P1;SDS_P2;PMS_P1;PMS_P2;Temp;Humidity;BMP_temperature;BMP_pressure;BME280_temperature;BME280_humidity;BME280_pressure;Samples;Min_cycle;Max_cycle;Signal;HPM_P1;HPM_P2
2021/06/30 00:01:26;;;;;;;5.23;4.83;;;;;;;12.81;100.00;97664.91;5084375;28;20213;-68
2021/06/30 00:03:59;;;;;;;5.60;4.93;;;;;;;12.95;100.00;97656.06;5083319;28;20209;-68
2021/06/30 00:06:32;;;;;;;5.20;4.80;;;;;;;12.93;100.00;97647.47;5080104;28;20206;-69
2021/06/30 00:09:06;;;;;;;5.77;5.33;;;;;;;12.91;100.00;97644.16;5089524;28;20705;-70
2021/06/30 00:11:39;;;;;;;5.77;4.50;;;;;;;12.84;100.00;97645.94;5082898;28;20221;-68
2021/06/30 00:14:13;;;;;;;5.10;4.80;;;;;;;12.82;100.00;97642.63;5083504;28;20210;-68
2021/06/30 00:16:48;;;;;;;6.50;4.83;;;;;;;12.80;100.00;97644.66;5091291;28;20205;-69
2021/06/30 00:19:22;;;;;;;5.47;5.00;;;;;;;12.78;100.00;97642.16;5088031;28;20229;-70
2021/06/30 00:21:55;;;;;;;6.47;4.97;;;;;;;12.76;100.00;97644.19;5086238;28;20198;-69
2021/06/30 00:24:30;;;;;;;5.63;5.20;;;;;;;12.84;100.00;97636.09;5089357;28;20207;-69
2021/06/30 00:27:04;;;;;;;4.27;4.07;;;;;;;12.84;100.00;97632.63;5088624;28;20209;-68
2021/06/30 00:29:37;;;;;;;5.33;4.93;;;;;;;12.82;100.00;97634.66;5088691;28;20303;-68
2021/06/30 00:32:10;;;;;;;5.10;4.70;;;;;;;12.83;100.00;97633.66;5090738;28;20233;-68
2021/06/30 00:34:43;;;;;;;5.30;4.97;;;;;;;12.77;100.00;97639.72;5089677;28;20222;-69
2021/06/30 00:37:16;;;;;;;5.17;4.83;;;;;;;12.73;100.00;97640.09;5086118;28;20205;-68
2021/06/30 00:39:50;;;;;;;4.83;4.43;;;;;;;12.78;100.00;97641.38;5084167;28;20728;-69
2021/06/30 00:42:23;;;;;;;5.00;4.47;;;;;;;12.70;100.00;97637.81;5086643;28;20204;-69
2021/06/30 00:44:56;;;;;;;5.27;4.87;;;;;;;12.71;100.00;97641.28;5090180;28;20206;-69
2021/06/30 00:47:29;;;;;;;5.40;4.90;;;;;;;12.75;100.00;97642.53;5088331;28;20586;-69
2021/06/30 00:50:03;;;;;;;5.57;5.03;;;;;;;12.73;100.00;97645.41;5088359;28;20250;-69
2021/06/30 00:52:36;;;;;;;4.83;4.50;;;;;;;12.75;100.00;97645.22;5091210;28;20210;-69
2021/06/30 00:55:11;;;;;;;4.83;4.50;;;;;;;12.77;100.00;97637.06;5087646;28;20213;-69
2021/06/30 00:57:45;;;;;;;5.20;4.70;;;;;;;12.72;100.00;97638.44;5091421;28;20694;-69
2021/06/30 01:00:18;;;;;;;5.43;4.73;;;;;;;12.79;100.00;97641.16;5090483;28;20224;-70
2021/06/30 01:02:51;;;;;;;4.93;4.63;;;;;;;12.75;100.00;97639.88;5087353;28;20744;-69
2021/06/30 01:05:24;;;;;;;5.43;4.97;;;;;;;12.69;100.00;97638.81;5089566;28;20201;-69
2021/06/30 01:07:57;;;;;;;5.40;4.90;;;;;;;12.70;100.00;97629.84;5090343;28;20201;-70
2021/06/30 01:10:31;;;;;;;6.63;6.03;;;;;;;12.75;100.00;97629.25;5088217;28;20226;-69
2021/06/30 01:13:06;;;;;;;5.43;4.97;;;;;;;12.80;100.00;97623.38;5088663;28;20492;-69
2021/06/30 01:15:47;;;;;;;5.63;5.13;;;;;;;12.71;100.00;97617.34;5087539;28;20198;-70
2021/06/30 01:18:21;;;;;;;6.03;5.53;;;;;;;12.66;100.00;97623.22;5092671;28;20209;-69
2021/06/30 01:20:54;;;;;;;11.93;5.63;;;;;;;12.67;100.00;97621.41;5094517;28;20201;-69
2021/06/30 01:23:30;;;;;;;6.33;5.50;;;;;;;12.63;100.00;97620.13;5094918;28;20202;-70
2021/06/30 01:26:03;;;;;;;6.47;5.83;;;;;;;12.63;100.00;97612.94;5093928;28;20203;-71
2021/06/30 01:28:37;;;;;;;5.70;5.30;;;;;;;12.63;100.00;97606.84;5095217;28;20217;-69
2021/06/30 01:31:10;;;;;;;5.10;4.70;;;;;;;12.61;100.00;97596.38;5087468;28;20245;-69
2021/06/30 01:33:43;;;;;;;5.43;5.03;;;;;;;12.63;100.00;97589.03;5092543;28;21191;-70
2021/06/30 01:36:16;;;;;;;4.83;4.50;;;;;;;12.64;100.00;97595.19;5092467;28;20203;-69
2021/06/30 01:38:50;;;;;;;5.73;5.23;;;;;;;12.64;100.00;97582.69;5092325;28;20226;-70
2021/06/30 01:41:23;;;;;;;5.60;5.10;;;;;;;12.67;100.00;97574.34;5090833;28;20213;-70
2021/06/30 01:43:56;;;;;;;5.37;4.97;;;;;;;12.68;100.00;97572.53;5093135;28;20207;-69
2021/06/30 01:46:25;;;;;;;5.97;5.57;;;;;;;12.69;100.00;97559.06;5092540;28;20248;-70
2021/06/30 01:48:58;;;;;;;5.27;4.77;;;;;;;12.65;100.00;97571.06;5092783;28;20237;-69
2021/06/30 01:51:31;;;;;;;6.23;5.73;;;;;;;12.61;100.00;97582.28;5092959;28;20323;-68
2021/06/30 01:54:09;;;;;;;5.43;4.93;;;;;;;12.61;100.00;97585.75;5091562;28;20213;-68
2021/06/30 01:56:48;;;;;;;5.60;5.20;;;;;;;12.59;100.00;97587.75;5092715;28;20366;-70
2021/06/30 01:59:16;;;;;;;5.53;5.07;;;;;;;12.57;100.00;97579.16;5095645;28;20225;-69
2021/06/30 02:01:49;;;;;;;5.73;5.37;;;;;;;12.58;100.00;97581.63;5090293;28;20225;-69
2021/06/30 02:04:22;;;;;;;6.27;5.83;;;;;;;12.55;100.00;97575.84;5090647;28;20198;-69
2021/06/30 02:06:55;;;;;;;6.13;5.73;;;;;;;12.53;100.00;97575.22;5091750;28;20254;-70
2021/06/30 02:09:29;;;;;;;6.13;5.63;;;;;;;12.55;100.00;97579.34;5089581;28;20252;-70
2021/06/30 02:12:02;;;;;;;6.73;6.13;;;;;;;12.55;100.00;97584.66;5091341;28;20506;-71
2021/06/30 02:14:35;;;;;;;6.17;5.67;;;;;;;12.62;100.00;97599.88;5091767;28;20202;-70
2021/06/30 02:17:03;;;;;;;5.63;5.23;;;;;;;12.55;100.00;97602.44;5091570;28;20247;-69
2021/06/30 02:19:36;;;;;;;6.60;6.00;;;;;;;12.56;100.00;97610.25;5093812;28;20222;-69
2021/06/30 02:22:09;;;;;;;6.17;5.77;;;;;;;12.58;100.00;97620.66;5094059;28;20262;-69
2021/06/30 02:24:44;;;;;;;7.73;7.00;;;;;;;12.51;100.00;97619.78;5092837;28;20213;-69
2021/06/30 02:27:17;;;;;;;6.50;5.87;;;;;;;12.50;100.00;97620.78;5092199;28;20205;-71
2021/06/30 02:29:50;;;;;;;6.73;6.10;;;;;;;12.58;100.00;97623.31;5090351;28;20229;-69
2021/06/30 02:32:22;;;;;;;6.50;6.10;;;;;;;12.56;100.00;97614.72;5091573;28;20748;-70
2021/06/30 02:34:56;;;;;;;7.20;6.57;;;;;;;12.53;100.00;97615.09;5092273;28;20309;-69
2021/06/30 02:37:29;;;;;;;7.50;6.53;;;;;;;12.60;100.00;97616.00;5091320;28;20217;-69
2021/06/30 02:40:05;;;;;;;6.57;5.77;;;;;;;12.64;100.00;97624.44;5090846;28;20228;-69
2021/06/30 02:42:38;;;;;;;5.87;5.53;;;;;;;12.72;100.00;97622.50;5095570;28;20394;-71
2021/06/30 02:45:13;;;;;;;6.50;5.70;;;;;;;12.80;100.00;97626.03;5092996;28;20232;-69
2021/06/30 02:47:48;;;;;;;5.80;5.40;;;;;;;12.79;100.00;97635.03;5089615;28;20205;-69
2021/06/30 02:50:21;;;;;;;9.27;6.40;;;;;;;12.76;100.00;97630.09;5088805;28;20233;-69
2021/06/30 02:52:54;;;;;;;6.03;5.43;;;;;;;12.78;100.00;97636.03;5082731;28;20256;-70
2021/06/30 02:55:29;;;;;;;6.50;5.37;;;;;;;12.84;100.00;97632.63;5083236;28;20210;-69
2021/06/30 02:58:02;;;;;;;8.70;5.47;;;;;;;12.72;100.00;97638.44;5085079;28;20212;-70
2021/06/30 03:00:35;;;;;;;7.13;5.90;;;;;;;12.78;100.00;97633.38;5085828;28;20646;-70
2021/06/30 03:03:08;;;;;;;6.60;5.47;;;;;;;12.76;100.00;97640.72;5086928;28;20199;-69
2021/06/30 03:05:41;;;;;;;6.03;5.53;;;;;;;12.77;100.00;97642.38;5089129;28;20213;-69
2021/06/30 03:08:14;;;;;;;7.30;6.67;;;;;;;12.76;100.00;97636.22;5088589;28;20216;-69
2021/06/30 03:10:48;;;;;;;6.00;5.40;;;;;;;12.79;100.00;97643.00;5087056;28;20281;-68
2021/06/30 03:13:21;;;;;;;5.63;5.23;;;;;;;12.79;100.00;97638.50;5088945;28;20715;-70
2021/06/30 03:15:54;;;;;;;6.30;5.40;;;;;;;12.74;100.00;97641.75;5089248;28;20221;-68
2021/06/30 03:18:27;;;;;;;5.50;4.93;;;;;;;12.74;100.00;97633.75;5087947;28;20206;-70
2021/06/30 03:21:00;;;;;;;5.27;4.83;;;;;;;12.74;100.00;97640.91;5092538;28;20205;-69
2021/06/30 03:23:33;;;;;;;6.50;5.90;;;;;;;12.76;100.00;97641.53;5082513;28;20229;-70
2021/06/30 03:26:07;;;;;;;5.60;5.30;;;;;;;12.74;100.00;97638.25;5084519;28;20698;-69
2021/06/30 03:28:40;;;;;;;6.00;5.30;;;;;;;12.74;100.00;97643.56;5083682;28;20236;-68
2021/06/30 03:31:13;;;;;;;6.50;5.90;;;;;;;12.74;100.00;97641.75;5090270;28;20277;-69
2021/06/30 03:33:46;;;;;;;5.63;5.33;;;;;;;12.72;100.00;97646.41;5088351;28;20249;-69
2021/06/30 03:36:19;;;;;;;6.10;5.73;;;;;;;12.77;100.00;97637.88;5087996;28;20222;-69
2021/06/30 03:38:52;;;;;;;8.73;5.77;;;;;;;12.75;100.00;97637.22;5087244;28;20287;-70
2021/06/30 03:41:26;;;;;;;8.83;5.90;;;;;;;12.74;100.00;97633.75;5088136;28;20208;-69
2021/06/30 03:43:59;;;;;;;7.33;5.67;;;;;;;12.76;100.00;97635.41;5089224;28;20207;-69
2021/06/30 03:46:32;;;;;;;5.50;5.17;;;;;;;12.82;100.00;97632.00;5087336;28;20230;-69
2021/06/30 03:49:05;;;;;;;7.10;5.27;;;;;;;12.83;100.00;97636.31;5089514;28;20241;-69
2021/06/30 03:51:38;;;;;;;5.77;4.90;;;;;;;12.82;100.00;97640.78;5086138;28;20205;-68
2021/06/30 03:54:11;;;;;;;5.53;5.03;;;;;;;12.93;100.00;97625.38;5090498;28;20236;-76
2021/06/30 03:56:45;;;;;;;5.27;4.97;;;;;;;13.04;100.00;97638.16;5089364;28;20201;-69
2021/06/30 03:59:18;;;;;;;5.10;4.60;;;;;;;13.09;100.00;97632.28;5085625;28;20232;-70
2021/06/30 04:01:52;;;;;;;11.43;4.80;;;;;;;13.18;100.00;97636.47;5086755;28;20198;-69
2021/06/30 04:04:25;;;;;;;6.07;4.73;;;;;;;13.21;100.00;97640.56;5088943;28;20202;-69
2021/06/30 04:06:58;;;;;;;4.87;4.57;;;;;;;13.31;100.00;97644.56;5086563;28;20198;-70
2021/06/30 04:09:31;;;;;;;4.20;3.90;;;;;;;13.51;100.00;97643.13;5085975;28;20272;-69
2021/06/30 04:12:06;;;;;;;4.87;4.27;;;;;;;13.68;100.00;97649.03;5082431;28;20213;-70
2021/06/30 04:14:39;;;;;;;4.00;3.80;;;;;;;13.60;100.00;97645.47;5088192;28;20634;-69
2021/06/30 04:17:12;;;;;;;4.17;3.83;;;;;;;13.68;100.00;97654.34;5087807;28;20257;-70
2021/06/30 04:19:45;;;;;;;4.53;3.53;;;;;;;13.87;100.00;97659.03;5086976;28;20229;-68
2021/06/30 04:22:14;;;;;;;3.93;3.63;;;;;;;13.89;100.00;97649.00;5089197;28;20202;-68
2021/06/30 04:24:46;;;;;;;4.00;3.73;;;;;;;13.80;100.00;97658.13;5087055;28;20577;-68
2021/06/30 04:27:21;;;;;;;3.83;3.53;;;;;;;13.73;100.00;97659.91;5083632;28;20833;-70
2021/06/30 04:29:54;;;;;;;5.37;3.47;;;;;;;13.77;100.00;97660.38;5087529;28;20217;-68
2021/06/30 04:32:27;;;;;;;3.47;3.27;;;;;;;13.67;100.00;97648.22;5086852;28;20198;-70
2021/06/30 04:35:00;;;;;;;3.00;2.90;;;;;;;13.64;100.00;97658.41;5089233;28;20287;-67
2021/06/30 04:37:33;;;;;;;4.67;3.27;;;;;;;13.64;100.00;97651.25;5084612;28;20202;-68
2021/06/30 04:40:07;;;;;;;3.33;3.13;;;;;;;13.54;100.00;97646.25;5084488;28;20312;-72
2021/06/30 04:42:41;;;;;;;3.10;2.90;;;;;;;13.40;100.00;97658.59;5086392;28;20613;-72
2021/06/30 04:45:14;;;;;;;3.20;2.90;;;;;;;13.37;100.00;97666.13;5089319;28;20217;-69
2021/06/30 04:47:47;;;;;;;3.83;3.17;;;;;;;13.31;100.00;97675.69;5087711;28;20193;-71
2021/06/30 04:50:21;;;;;;;5.03;3.43;;;;;;;13.38;100.00;97676.59;5085106;28;20227;-72
2021/06/30 04:52:54;;;;;;;3.60;3.30;;;;;;;13.35;100.00;97665.47;5088795;28;20229;-71
2021/06/30 04:55:27;;;;;;;3.00;2.80;;;;;;;13.35;100.00;97666.31;5084143;28;20589;-74
2021/06/30 04:58:01;;;;;;;3.03;2.83;;;;;;;13.28;100.00;97676.88;5090068;28;20254;-71
2021/06/30 05:00:35;;;;;;;2.90;2.60;;;;;;;13.25;100.00;97669.28;5086892;28;20229;-68
2021/06/30 05:03:03;;;;;;;3.40;3.20;;;;;;;13.30;100.00;97668.72;5086154;28;20599;-70
2021/06/30 05:05:36;;;;;;;2.83;2.63;;;;;;;13.33;100.00;97673.66;5084245;28;20229;-73
2021/06/30 05:08:08;;;;;;;3.10;2.90;;;;;;;13.25;100.00;97669.28;5086645;28;20202;-71
2021/06/30 05:10:41;;;;;;;2.83;2.60;;;;;;;13.29;100.00;97675.88;5088307;28;20225;-71
2021/06/30 05:13:16;;;;;;;2.60;2.50;;;;;;;13.25;100.00;97674.59;5085663;28;20226;-71
2021/06/30 05:15:49;;;;;;;3.37;3.07;;;;;;;13.29;100.00;97669.75;5084711;28;20236;-73
2021/06/30 05:18:22;;;;;;;2.97;2.77;;;;;;;13.30;100.00;97674.06;5087426;28;20229;-70
2021/06/30 05:20:55;;;;;;;2.80;2.60;;;;;;;13.34;100.00;97679.81;5082739;28;20202;-72
2021/06/30 05:23:27;;;;;;;2.83;2.63;;;;;;;13.39;100.00;97685.38;5087309;28;20606;-73
2021/06/30 05:26:00;;;;;;;3.40;3.10;;;;;;;13.46;100.00;97688.97;5090176;28;20376;-70
2021/06/30 05:28:35;;;;;;;3.60;3.30;;;;;;;13.55;100.00;97690.50;5087286;28;20198;-72
2021/06/30 05:31:07;;;;;;;3.00;2.83;;;;;;;13.72;100.00;97687.56;5085504;28;20194;-72
2021/06/30 05:33:40;;;;;;;3.10;2.90;;;;;;;13.83;100.00;97683.56;5087518;28;20237;-70
2021/06/30 05:36:13;;;;;;;2.83;2.73;;;;;;;13.88;100.00;97684.63;5088968;28;20212;-70
2021/06/30 05:38:46;;;;;;;3.23;2.80;;;;;;;13.92;100.00;97678.91;5086813;28;20234;-70
2021/06/30 05:41:19;;;;;;;3.00;2.80;;;;;;;13.93;100.00;97677.91;5085275;28;20696;-69
2021/06/30 05:43:54;;;;;;;2.60;2.40;;;;;;;13.96;100.00;97673.00;5084502;28;20738;-72
2021/06/30 05:46:27;;;;;;;2.80;2.60;;;;;;;13.93;100.00;97672.56;5081930;28;20224;-74
2021/06/30 05:48:55;;;;;;;2.87;2.67;;;;;;;14.01;100.00;97673.22;5082881;28;20218;-72
2021/06/30 05:51:28;;;;;;;4.33;2.70;;;;;;;14.06;100.00;97672.66;5088771;28;20264;-72
2021/06/30 05:54:00;;;;;;;2.40;2.10;;;;;;;13.96;100.00;97673.00;5087121;28;20218;-72
2021/06/30 05:56:33;;;;;;;2.57;2.37;;;;;;;13.88;100.00;97671.31;5087971;28;20207;-73
2021/06/30 05:59:08;;;;;;;3.10;2.57;;;;;;;13.96;100.00;97672.19;5090183;28;20230;-73
2021/06/30 06:01:41;;;;;;;2.87;2.70;;;;;;;14.10;100.00;97673.09;5086395;28;20213;-73
2021/06/30 06:04:14;;;;;;;3.00;2.80;;;;;;;14.09;100.00;97679.47;5091635;28;20195;-72
2021/06/30 06:06:47;;;;;;;2.70;2.40;;;;;;;14.18;100.00;97668.44;5095078;28;20210;-73
2021/06/30 06:09:20;;;;;;;2.33;2.23;;;;;;;14.23;100.00;97683.84;5092449;28;20812;-71
2021/06/30 06:11:53;;;;;;;4.20;2.20;;;;;;;14.36;100.00;97674.28;5091205;28;20523;-73
2021/06/30 06:14:27;;;;;;;2.60;2.50;;;;;;;14.42;100.00;97669.00;5092531;28;20210;-70
2021/06/30 06:17:00;;;;;;;2.33;2.13;;;;;;;14.57;100.00;97676.03;5094266;28;20625;-69
2021/06/30 06:19:28;;;;;;;2.37;2.27;;;;;;;14.55;100.00;97676.25;5090630;28;20253;-71
2021/06/30 06:22:02;;;;;;;2.53;1.70;;;;;;;14.62;100.00;97662.94;5089902;28;20218;-73
2021/06/30 06:24:35;;;;;;;2.67;2.47;;;;;;;14.81;100.00;97663.25;5092092;28;20201;-71
2021/06/30 06:27:08;;;;;;;2.10;2.00;;;;;;;14.90;100.00;97662.88;5091550;28;20232;-73
2021/06/30 06:29:42;;;;;;;2.90;2.20;;;;;;;15.01;100.00;97668.66;5091948;28;20218;-72
2021/06/30 06:32:15;;;;;;;3.10;2.07;;;;;;;15.18;100.00;97667.28;5092895;28;20204;-69
2021/06/30 06:34:48;;;;;;;1.80;1.70;;;;;;;15.11;100.00;97666.41;5093537;28;20221;-67
2021/06/30 06:37:21;;;;;;;1.90;1.80;;;;;;;15.14;100.00;97667.88;5089720;28;20205;-71
2021/06/30 06:39:54;;;;;;;1.73;1.63;;;;;;;14.97;100.00;97676.25;5092464;28;20230;-69
2021/06/30 06:42:27;;;;;;;2.70;1.80;;;;;;;15.08;100.00;97674.03;5091400;28;20205;-70
2021/06/30 06:45:01;;;;;;;1.83;1.73;;;;;;;14.93;100.00;97668.84;5091891;28;20573;-69
2021/06/30 06:47:34;;;;;;;1.50;1.40;;;;;;;14.75;100.00;97670.19;5093086;28;20198;-70
2021/06/30 06:50:07;;;;;;;2.57;1.83;;;;;;;14.59;100.00;97676.69;5091854;28;20226;-69
2021/06/30 06:52:40;;;;;;;1.20;1.20;;;;;;;14.36;100.00;97669.78;5087277;28;20218;-69
2021/06/30 06:55:14;;;;;;;1.43;1.33;;;;;;;14.37;100.00;97676.75;5091170;28;20236;-69
2021/06/30 06:57:46;;;;;;;1.10;1.10;;;;;;;14.39;100.00;97677.38;5092117;28;20207;-68
2021/06/30 07:00:22;;;;;;;1.10;1.10;;;;;;;14.42;100.00;97671.66;5090626;28;20229;-71
2021/06/30 07:02:55;;;;;;;1.03;1.03;;;;;;;14.32;100.00;97681.84;5090423;28;20357;-71
2021/06/30 07:05:28;;;;;;;1.03;1.03;;;;;;;14.33;100.00;97673.66;5091821;28;20209;-70
2021/06/30 07:08:01;;;;;;;0.80;0.80;;;;;;;14.33;100.00;97681.66;5087926;28;20202;-69
2021/06/30 07:10:34;;;;;;;1.20;1.20;;;;;;;14.44;100.00;97690.13;5091786;28;20244;-71
2021/06/30 07:13:07;;;;;;;1.07;1.07;;;;;;;14.52;100.00;97689.13;5091592;28;20269;-70
2021/06/30 07:15:41;;;;;;;1.80;1.10;;;;;;;14.46;100.00;97682.75;5092519;28;20985;-70
2021/06/30 07:18:15;;;;;;;1.17;1.17;;;;;;;14.69;100.00;97689.63;5091597;28;20695;-72
2021/06/30 07:20:48;;;;;;;1.00;0.87;;;;;;;15.05;100.00;97681.41;5090100;28;20217;-71
2021/06/30 07:23:21;;;;;;;0.90;0.90;;;;;;;15.15;100.00;97680.19;5089506;28;20596;-72
2021/06/30 07:25:54;;;;;;;0.80;0.80;;;;;;;15.30;100.00;97674.69;5089573;28;20229;-70
2021/06/30 07:28:25;;;;;;;1.80;0.80;;;;;;;15.18;100.00;97680.63;5092997;28;20198;-72
2021/06/30 07:31:00;;;;;;;3.43;1.07;;;;;;;14.91;100.00;97687.69;5091618;28;20197;-72
2021/06/30 07:33:32;;;;;;;0.80;0.80;;;;;;;15.00;100.00;97686.53;5091497;28;20224;-70
2021/06/30 07:36:07;;;;;;;0.90;0.90;;;;;;;15.00;100.00;97691.03;5087045;28;20226;-72
2021/06/30 07:38:40;;;;;;;0.87;0.87;;;;;;;14.94;100.00;97697.16;5107188;28;20639;-77
2021/06/30 07:41:13;;;;;;;1.63;1.00;;;;;;;15.07;100.00;97693.72;5105964;28;20214;-74
2021/06/30 07:43:41;;;;;;;0.93;0.93;;;;;;;15.00;100.00;97689.19;5094926;28;20641;-72
2021/06/30 07:46:10;;;;;;;1.00;1.00;;;;;;;14.98;100.00;97685.06;5090812;28;20202;-73
2021/06/30 07:48:38;;;;;;;1.63;1.10;;;;;;;15.10;100.00;97698.66;5090253;28;20225;-73
2021/06/30 07:51:06;;;;;;;1.20;1.20;;;;;;;15.18;100.00;97690.47;5091193;28;20209;-72
2021/06/30 07:53:34;;;;;;;1.10;1.10;;;;;;;15.21;100.00;97698.06;5089327;28;20198;-72
2021/06/30 07:56:02;;;;;;;1.20;1.00;;;;;;;15.25;100.00;97687.81;5089324;28;20230;-72
2021/06/30 07:58:30;;;;;;;0.87;0.87;;;;;;;15.13;100.00;97703.59;5087733;28;20199;-73
2021/06/30 08:00:58;;;;;;;1.20;1.20;;;;;;;15.10;100.00;97704.00;5092322;28;20213;-71
2021/06/30 08:03:28;;;;;;;0.77;0.77;;;;;;;15.45;100.00;97702.03;5092319;28;20205;-70
2021/06/30 08:05:56;;;;;;;1.17;1.17;;;;;;;15.58;100.00;97700.41;5091343;28;20288;-72
2021/06/30 08:08:24;;;;;;;0.80;0.80;;;;;;;15.77;100.00;97699.59;5090758;28;20205;-71
2021/06/30 08:10:52;;;;;;;0.83;0.83;;;;;;;15.67;100.00;97696.53;5086839;28;20207;-70
2021/06/30 08:13:20;;;;;;;2.40;1.10;;;;;;;15.70;100.00;97695.28;5089734;28;20202;-72
2021/06/30 08:15:48;;;;;;;0.90;0.90;;;;;;;15.85;97.47;97692.41;5087246;28;20222;-72
2021/06/30 08:18:16;;;;;;;0.93;0.93;;;;;;;15.99;97.29;97699.44;5089933;28;20206;-72
2021/06/30 08:20:50;;;;;;;0.87;0.87;;;;;;;15.69;97.50;97704.31;5088861;28;20222;-74
2021/06/30 08:23:19;;;;;;;1.20;1.10;;;;;;;15.83;95.75;97697.13;5088654;28;20508;-69
2021/06/30 08:25:47;;;;;;;1.00;1.00;;;;;;;16.10;94.43;97700.69;5090246;28;20209;-73
2021/06/30 08:28:19;;;;;;;0.93;0.93;;;;;;;16.18;96.30;97707.63;5092143;28;20198;-73
2021/06/30 08:30:47;;;;;;;1.10;1.10;;;;;;;16.04;96.32;97704.16;5091085;28;20221;-72
2021/06/30 08:33:15;;;;;;;1.10;1.10;;;;;;;15.80;97.07;97709.06;5090959;28;20213;-72
2021/06/30 08:35:43;;;;;;;1.00;1.00;;;;;;;15.79;98.07;97699.41;5092228;28;20584;-71
2021/06/30 08:38:12;;;;;;;1.03;0.97;;;;;;;15.80;98.23;97709.06;5089703;28;20225;-71
2021/06/30 08:40:40;;;;;;;0.80;0.80;;;;;;;16.11;97.97;97710.34;5091564;28;20239;-72
2021/06/30 08:43:08;;;;;;;0.80;0.80;;;;;;;16.31;96.28;97723.69;5090492;28;20210;-72
2021/06/30 08:45:36;;;;;;;1.43;1.13;;;;;;;16.13;95.62;97710.94;5090520;28;20214;-72
2021/06/30 08:48:06;;;;;;;1.00;1.00;;;;;;;16.55;94.72;97715.19;5088435;28;20210;-74
2021/06/30 08:50:35;;;;;;;0.93;0.93;;;;;;;16.70;94.16;97720.31;5091141;28;20230;-71
2021/06/30 08:53:03;;;;;;;0.90;0.90;;;;;;;16.64;92.37;97720.09;5088298;28;20213;-70
2021/06/30 08:55:38;;;;;;;1.23;1.23;;;;;;;16.34;90.11;97720.59;5088449;28;20264;-70
2021/06/30 08:58:06;;;;;;;1.10;1.10;;;;;;;16.02;92.89;97716.91;5088259;28;20206;-72
2021/06/30 09:00:35;;;;;;;1.10;1.10;;;;;;;16.02;92.56;97728.44;5090886;28;20222;-69
2021/06/30 09:03:03;;;;;;;1.20;1.20;;;;;;;16.26;91.52;97709.28;5090796;28;20209;-71
2021/06/30 09:05:48;;;;;;;2.33;1.40;;;;;;;16.34;88.27;97711.72;5091928;28;20670;-71
2021/06/30 09:08:16;;;;;;;1.00;1.00;;;;;;;16.75;88.28;97707.94;5090826;28;20201;-70
2021/06/30 09:10:46;;;;;;;0.90;0.90;;;;;;;16.75;88.88;97715.97;5088752;28;20293;-72
2021/06/30 09:13:21;;;;;;;1.13;0.87;;;;;;;16.84;84.48;97718.41;5086937;28;20216;-72
2021/06/30 09:15:57;;;;;;;0.70;0.70;;;;;;;16.97;85.20;97715.69;5087149;28;20800;-71
2021/06/30 09:18:29;;;;;;;0.60;0.60;;;;;;;16.98;82.01;97725.38;5088745;28;20769;-70
2021/06/30 09:21:18;;;;;;;0.90;0.90;;;;;;;16.96;80.16;97718.56;5088087;28;20597;-68
2021/06/30 09:23:57;;;;;;;0.63;0.63;;;;;;;17.21;79.48;97726.72;5087937;28;20206;-70
2021/06/30 09:26:26;;;;;;;0.93;0.63;;;;;;;17.19;80.99;97720.75;5086263;28;20297;-71
2021/06/30 09:29:02;;;;;;;0.60;0.60;;;;;;;16.87;82.92;97731.38;5086629;28;20222;-70
2021/06/30 09:31:30;;;;;;;0.60;0.60;;;;;;;16.93;84.04;97723.31;5089874;28;20231;-72
2021/06/30 09:33:59;;;;;;;2.33;0.80;;;;;;;17.15;81.18;97731.09;5086271;28;20213;-70
2021/06/30 09:36:30;;;;;;;0.83;0.83;;;;;;;17.20;80.10;97719.72;5088878;28;20226;-70
2021/06/30 09:39:07;;;;;;;0.70;0.70;;;;;;;16.83;79.96;97733.66;5088941;28;20275;-71
2021/06/30 09:41:38;;;;;;;0.60;0.60;;;;;;;16.61;79.49;97727.75;5092471;28;20210;-71
2021/06/30 09:44:08;;;;;;;1.47;0.80;;;;;;;16.46;80.57;97723.44;5092691;28;20569;-70
2021/06/30 09:46:39;;;;;;;0.60;0.60;;;;;;;16.62;80.58;97719.50;5092382;28;20206;-71
2021/06/30 09:49:10;;;;;;;0.57;0.57;;;;;;;16.91;80.40;97727.25;5092600;28;20771;-72
2021/06/30 09:51:40;;;;;;;0.60;0.60;;;;;;;17.05;77.40;97715.47;5093429;28;20666;-71
2021/06/30 09:54:09;;;;;;;0.80;0.80;;;;;;;17.38;76.35;97723.56;5094411;28;20514;-71
2021/06/30 09:56:41;;;;;;;0.63;0.63;;;;;;;17.31;74.94;97726.25;5090550;28;20222;-73
2021/06/30 09:59:23;;;;;;;1.60;0.60;;;;;;;17.51;75.13;97718.13;5099933;28;20218;-72
2021/06/30 10:01:58;;;;;;;2.70;0.80;;;;;;;17.54;75.35;97715.00;5099581;28;20281;-74
2021/06/30 10:04:32;;;;;;;0.80;0.80;;;;;;;17.70;73.38;97720.91;5093716;28;20209;-71
2021/06/30 10:07:03;;;;;;;0.50;0.50;;;;;;;17.79;73.34;97700.81;5090331;28;20198;-73
2021/06/30 10:09:31;;;;;;;0.80;0.80;;;;;;;18.01;74.16;97697.81;5093912;28;20429;-72
2021/06/30 10:12:04;;;;;;;0.77;0.60;;;;;;;18.34;71.16;97700.19;5089438;28;20293;-72
2021/06/30 10:14:32;;;;;;;0.67;0.67;;;;;;;18.36;73.92;97692.72;5091256;28;20210;-71
2021/06/30 10:17:01;;;;;;;1.17;0.60;;;;;;;18.83;68.37;97698.63;5092961;28;20222;-71
2021/06/30 10:19:30;;;;;;;1.13;0.77;;;;;;;19.00;68.80;97694.31;5092582;28;20245;-72
2021/06/30 10:21:58;;;;;;;0.53;0.53;;;;;;;19.27;67.47;97695.81;5088729;28;20217;-72
2021/06/30 10:24:26;;;;;;;1.20;0.50;;;;;;;19.42;63.27;97698.09;5090584;28;20209;-72
2021/06/30 10:26:55;;;;;;;0.60;0.60;;;;;;;18.89;65.36;97706.59;5090845;28;20231;-74
2021/06/30 10:29:26;;;;;;;1.70;0.80;;;;;;;18.36;67.24;97703.44;5091921;28;20229;-73
2021/06/30 10:31:57;;;;;;;0.50;0.50;;;;;;;18.15;67.95;97706.53;5090410;28;20225;-72
2021/06/30 10:34:36;;;;;;;0.60;0.40;;;;;;;18.01;68.27;97695.13;5092476;28;20232;-74
2021/06/30 10:37:07;;;;;;;0.77;0.50;;;;;;;17.86;69.26;97700.78;5092357;28;20749;-71
2021/06/30 10:39:43;;;;;;;0.93;0.47;;;;;;;17.70;69.90;97708.31;5091753;28;20228;-72
2021/06/30 10:42:20;;;;;;;0.87;0.70;;;;;;;17.86;69.26;97700.78;5094015;28;20198;-73
2021/06/30 10:44:52;;;;;;;0.50;0.50;;;;;;;17.57;70.83;97700.38;5092125;28;20296;-71
2021/06/30 10:47:42;;;;;;;0.47;0.47;;;;;;;17.55;72.45;97697.88;5090482;28;20194;-73
2021/06/30 10:50:35;;;;;;;0.50;0.50;;;;;;;17.56;73.54;97702.22;5089002;28;20218;-70
2021/06/30 10:53:35;;;;;;;1.40;0.50;;;;;;;17.37;73.00;97701.28;5091133;28;20233;-71
2021/06/30 10:56:11;;;;;;;0.80;0.70;;;;;;;17.32;73.74;97715.34;5092614;28;20226;-69
2021/06/30 10:58:42;;;;;;;0.40;0.40;;;;;;;17.53;72.39;97716.03;5091738;28;20200;-71
2021/06/30 11:01:19;;;;;;;0.40;0.40;;;;;;;17.49;71.77;97710.31;5091467;28;20222;-72
2021/06/30 11:03:53;;;;;;;0.50;0.50;;;;;;;17.61;70.79;97701.56;5092478;28;20596;-69
2021/06/30 11:06:26;;;;;;;0.47;0.47;;;;;;;18.08;70.15;97691.31;5092759;28;20262;-71
2021/06/30 11:08:56;;;;;;;3.17;0.50;;;;;;;18.47;68.45;97680.44;5090599;28;20226;-71
2021/06/30 11:11:50;;;;;;;0.40;0.40;;;;;;;18.28;68.22;97676.09;5091700;28;20207;-70
2021/06/30 11:14:19;;;;;;;0.40;0.40;;;;;;;18.54;69.38;97671.50;5096802;28;20190;-76
2021/06/30 11:16:54;;;;;;;0.47;0.40;;;;;;;18.45;66.47;97677.16;5112292;28;20256;-74
2021/06/30 11:19:39;;;;;;;0.30;0.30;;;;;;;18.36;68.55;97681.16;5105821;28;20212;-73
2021/06/30 11:22:12;;;;;;;0.33;0.20;;;;;;;18.49;67.43;97678.34;5092328;28;20198;-72
2021/06/30 11:24:47;;;;;;;0.60;0.60;;;;;;;18.62;66.09;97668.50;5092163;28;20623;-70
2021/06/30 11:27:47;;;;;;;0.40;0.40;;;;;;;18.82;65.09;97672.84;5090841;28;20512;-71
2021/06/30 11:30:42;;;;;;;0.40;0.40;;;;;;;18.70;62.82;97686.19;5001873;28;20237;-71
2021/06/30 11:33:16;;;;;;;0.30;0.30;;;;;;;18.32;61.24;97694.22;5086824;28;20617;-71
2021/06/30 11:35:46;;;;;;;0.40;0.40;;;;;;;18.32;62.64;97685.34;5091828;28;20202;-71
2021/06/30 11:38:21;;;;;;;0.40;0.37;;;;;;;18.44;61.70;97680.88;5090411;28;20228;-71
2021/06/30 11:41:00;;;;;;;0.30;0.30;;;;;;;18.74;60.71;97684.69;5090395;28;20620;-70
2021/06/30 11:43:30;;;;;;;0.30;0.30;;;;;;;18.12;63.67;97678.31;5091901;28;20205;-72
2021/06/30 11:46:01;;;;;;;0.30;0.30;;;;;;;18.25;65.79;97681.91;5091142;28;20241;-69
2021/06/30 11:48:32;;;;;;;1.33;0.50;;;;;;;18.04;66.21;97670.56;5090729;28;20200;-70
2021/06/30 11:51:02;;;;;;;0.80;0.47;;;;;;;17.74;66.60;97668.50;5090883;28;20207;-73
2021/06/30 11:53:43;;;;;;;1.80;0.50;;;;;;;17.55;68.12;97659.56;5091128;28;20210;-72